CheckWX is a tool to help pilots better visualize weather data.  It is not intended as a substitute for an official pre-flight weather briefing.

13:44:18 UTC

KMUT METAR
Muscatine Municipal Airport
Muscatine, Iowa, USA
Current

29 mins ago

KMUT 051315Z AUTO 10004KT 10SM OVC100 06/03 A3019 RMK AO2
Observed
Apr-5 @ 13:15 UTC
Wind
  • 100° at 4 KTS
Visibility
Flight Rules
VFR
Cloud Levels
  • Overcast at 10,000' AGL
Temperature
C / 43°F
Dewpoint
C / 37°F
Humidity
81%
Altimeter
30.19" Hg
Pressure
1022.32 hPa
Previous

49 mins ago

KMUT 051255Z AUTO 00000KT 10SM OVC100 05/02 A3019 RMK AO2
Observed
Apr-5 @ 12:55 UTC
Visibility
Flight Rules
VFR
Cloud Levels
  • Overcast at 10,000' AGL
Temperature
C / 41°F
Dewpoint
C / 36°F
Humidity
81%
Altimeter
30.19" Hg
Pressure
1022.32 hPa
Previous

1 hour ago

KMUT 051235Z AUTO 00000KT 10SM OVC100 04/02 A3019 RMK AO2
Observed
Apr-5 @ 12:35 UTC
Visibility
Flight Rules
VFR
Cloud Levels
  • Overcast at 10,000' AGL
Temperature
C / 39°F
Dewpoint
C / 36°F
Humidity
87%
Altimeter
30.19" Hg
Pressure
1022.32 hPa